createdAt,value
2019-04-26T00:02:53.832Z,91.10
2019-04-26T00:05:42.540Z,90.94
2019-04-26T00:08:33.341Z,91.78
2019-04-26T00:11:41.858Z,91.72
2019-04-26T00:14:56.982Z,92.06
2019-04-26T00:17:52.275Z,92.10
2019-04-26T00:20:41.084Z,92.10
2019-04-26T00:23:30.547Z,92.36
2019-04-26T00:26:21.819Z,92.21
2019-04-26T00:29:11.372Z,92.21
2019-04-26T00:32:01.276Z,92.95
2019-04-26T00:34:50.273Z,93.23
2019-04-26T00:37:39.943Z,93.47
2019-04-26T00:40:29.907Z,93.35
2019-04-26T00:43:19.195Z,92.88
2019-04-26T00:46:09.919Z,92.75
2019-04-26T00:49:01.450Z,92.63
2019-04-26T00:51:51.088Z,92.90
2019-04-26T00:54:41.309Z,93.14
2019-04-26T00:57:31.405Z,93.06
2019-04-26T01:00:22.007Z,93.16
2019-04-26T01:03:10.877Z,93.87
2019-04-26T01:06:01.554Z,93.92
2019-04-26T01:08:51.224Z,93.45
2019-04-26T01:11:40.111Z,93.97
2019-04-26T01:14:29.999Z,94.31
2019-04-26T01:17:20.332Z,94.22
2019-04-26T01:20:09.914Z,94.59
2019-04-26T01:23:02.293Z,93.78
2019-04-26T01:26:01.967Z,93.61
2019-04-26T01:28:59.267Z,93.76
2019-04-26T01:32:06.105Z,94.28
2019-04-26T01:34:56.301Z,93.62
2019-04-26T01:37:46.531Z,93.47
2019-04-26T01:40:37.234Z,92.35
2019-04-26T01:43:45.514Z,91.42
2019-04-26T01:46:39.354Z,90.31
2019-04-26T01:49:28.494Z,89.31
2019-04-26T01:52:18.110Z,88.16
2019-04-26T01:55:07.469Z,87.56
2019-04-26T01:57:57.403Z,87.74
2019-04-26T02:01:07.076Z,87.36
2019-04-26T02:03:55.715Z,87.56
2019-04-26T02:06:45.015Z,87.46
2019-04-26T02:09:33.641Z,87.51
2019-04-26T02:12:23.831Z,87.94
2019-04-26T02:15:14.793Z,88.37
2019-04-26T02:18:04.725Z,87.73
2019-04-26T02:21:03.373Z,87.51
2019-04-26T02:23:56.932Z,87.41
2019-04-26T02:26:46.602Z,87.26
2019-04-26T02:29:35.995Z,87.53
2019-04-26T02:32:27.240Z,87.21
2019-04-26T02:35:16.628Z,87.14
2019-04-26T02:38:06.156Z,86.86
2019-04-26T02:40:56.010Z,87.98
2019-04-26T02:43:46.431Z,87.58
2019-04-26T02:46:50.353Z,86.60
2019-04-26T02:49:43.479Z,86.59
2019-04-26T02:53:03.320Z,86.96
2019-04-26T02:56:28.181Z,87.03
2019-04-26T02:59:34.573Z,86.29
2019-04-26T03:02:24.779Z,86.25
2019-04-26T03:05:13.973Z,87.25
2019-04-26T03:08:07.306Z,87.78
2019-04-26T03:11:19.059Z,87.77
2019-04-26T03:14:26.000Z,87.78
2019-04-26T03:17:32.526Z,87.34
2019-04-26T03:20:29.113Z,87.37
2019-04-26T03:23:41.782Z,87.49
2019-04-26T03:27:04.651Z,87.06
2019-04-26T03:30:18.418Z,87.95
2019-04-26T03:33:23.310Z,88.16
2019-04-26T03:36:33.938Z,88.78
2019-04-26T03:39:30.167Z,88.03
2019-04-26T03:42:49.168Z,86.92
2019-04-26T03:46:21.341Z,87.53
2019-04-26T03:49:31.998Z,87.44
2019-04-26T03:52:53.470Z,87.80
2019-04-26T03:56:23.132Z,88.23
2019-04-26T03:59:44.166Z,87.86
2019-04-26T04:02:50.402Z,88.42
2019-04-26T04:05:46.018Z,87.34
2019-04-26T04:08:48.186Z,86.75
2019-04-26T04:11:49.157Z,86.12
2019-04-26T04:15:06.226Z,87.25
2019-04-26T04:17:59.454Z,86.03
2019-04-26T04:21:32.448Z,86.30
2019-04-26T04:24:42.662Z,85.44
2019-04-26T04:27:41.382Z,85.74
2019-04-26T04:31:23.971Z,85.18
2019-04-26T04:34:19.422Z,85.97
2019-04-26T04:37:11.675Z,86.92
2019-04-26T04:40:29.718Z,87.02
2019-04-26T04:43:49.271Z,88.46
2019-04-26T04:47:24.411Z,88.23
2019-04-26T04:50:34.379Z,90.37
2019-04-26T04:53:51.612Z,90.93
2019-04-26T04:56:47.847Z,92.84
2019-04-26T04:59:25.415Z,92.97
2019-04-26T05:02:24.992Z,92.59
2019-04-26T05:05:31.209Z,94.93
2019-04-26T05:08:17.472Z,94.53
2019-04-26T05:11:03.816Z,97.70
2019-04-26T05:13:46.384Z,96.86
2019-04-26T05:16:42.573Z,97.53
2019-04-26T05:19:40.417Z,97.48
2019-04-26T05:22:47.359Z,97.83
2019-04-26T05:26:12.295Z,98.92
2019-04-26T05:28:52.101Z,98.77
2019-04-26T05:31:51.556Z,99.41
2019-04-26T05:34:56.997Z,99.27
2019-04-26T05:38:00.449Z,99.50
2019-04-26T05:40:59.274Z,99.95
2019-04-26T05:44:10.126Z,100.00
2019-04-26T05:47:40.275Z,100.00
2019-04-26T05:51:21.312Z,100.00
2019-04-26T05:54:45.849Z,100.00
2019-04-26T05:57:41.373Z,100.00
2019-04-26T06:00:26.010Z,100.00
2019-04-26T06:03:54.324Z,100.00
2019-04-26T06:06:40.635Z,100.00
2019-04-26T06:10:03.931Z,100.00
2019-04-26T06:12:52.411Z,100.00
2019-04-26T06:15:38.620Z,100.00
2019-04-26T06:18:47.479Z,100.00
2019-04-26T06:21:28.204Z,100.00
2019-04-26T06:25:08.454Z,100.00
2019-04-26T06:28:02.878Z,100.00
2019-04-26T06:30:46.711Z,100.00
2019-04-26T06:33:33.544Z,100.00
2019-04-26T06:36:10.119Z,100.00
2019-04-26T06:39:28.462Z,100.00
2019-04-26T06:42:55.288Z,100.00
2019-04-26T06:46:22.941Z,100.00
2019-04-26T06:49:12.030Z,100.00
2019-04-26T06:51:48.042Z,100.00
2019-04-26T06:54:50.391Z,100.00
2019-04-26T06:58:13.444Z,100.00
2019-04-26T07:01:03.215Z,100.00
2019-04-26T07:04:22.137Z,100.00
2019-04-26T07:07:35.994Z,100.00
2019-04-26T07:10:37.269Z,100.00
2019-04-26T07:13:35.236Z,100.00
2019-04-26T07:16:45.838Z,100.00
2019-04-26T07:19:58.477Z,100.00
2019-04-26T07:23:03.766Z,100.00
2019-04-26T07:26:03.806Z,100.00
2019-04-26T07:28:51.737Z,100.00
2019-04-26T07:31:35.393Z,100.00
2019-04-26T07:34:45.485Z,100.00
2019-04-26T07:38:05.317Z,100.00
2019-04-26T07:41:26.042Z,99.81
2019-04-26T07:45:02.074Z,100.00
2019-04-26T07:48:26.957Z,100.00
2019-04-26T07:51:45.893Z,100.00
2019-04-26T07:55:00.177Z,100.00
2019-04-26T07:58:07.342Z,100.00
2019-04-26T08:00:49.014Z,100.00
2019-04-26T08:03:35.965Z,100.00
2019-04-26T08:06:29.929Z,100.00
2019-04-26T08:09:07.927Z,100.00
2019-04-26T08:11:49.723Z,100.00
2019-04-26T08:14:29.069Z,100.00
2019-04-26T08:17:31.397Z,100.00
2019-04-26T08:20:14.136Z,99.19
2019-04-26T08:22:52.239Z,98.23
2019-04-26T08:25:23.874Z,100.00
2019-04-26T08:27:56.241Z,100.00
2019-04-26T08:30:28.561Z,100.00
2019-04-26T08:33:02.155Z,99.75
2019-04-26T08:35:36.796Z,100.00
2019-04-26T08:38:16.107Z,98.96
2019-04-26T08:40:41.833Z,100.00
2019-04-26T08:43:50.147Z,99.54
2019-04-26T08:46:40.780Z,100.00
2019-04-26T08:49:35.140Z,100.00
2019-04-26T08:52:14.297Z,100.00
2019-04-26T08:54:45.152Z,99.70
2019-04-26T08:57:16.967Z,100.00
2019-04-26T08:59:50.819Z,100.00
2019-04-26T09:02:40.779Z,99.47
2019-04-26T09:05:32.553Z,99.43
2019-04-26T09:08:04.103Z,100.00
2019-04-26T09:10:39.350Z,98.26
2019-04-26T09:13:10.823Z,99.49
2019-04-26T09:16:13.590Z,100.00
2019-04-26T09:18:52.649Z,100.00
2019-04-26T09:21:19.512Z,100.00
2019-04-26T09:24:12.701Z,100.00
2019-04-26T09:27:07.595Z,100.00
2019-04-26T09:30:00.566Z,100.00
2019-04-26T09:32:35.008Z,100.00
2019-04-26T09:35:06.183Z,100.00
2019-04-26T09:37:37.179Z,100.00
2019-04-26T09:40:10.357Z,100.00
2019-04-26T09:42:47.305Z,100.00
2019-04-26T09:45:36.136Z,100.00
2019-04-26T09:48:20.653Z,100.00
2019-04-26T09:50:52.829Z,100.00
2019-04-26T09:53:23.796Z,99.39
2019-04-26T09:55:54.770Z,100.00
2019-04-26T09:58:26.867Z,100.00
2019-04-26T10:00:58.827Z,100.00
2019-04-26T10:03:30.141Z,100.00
2019-04-26T10:06:01.082Z,100.00
2019-04-26T10:08:32.340Z,100.00
2019-04-26T10:11:05.808Z,100.00
2019-04-26T10:13:51.028Z,100.00
2019-04-26T10:16:42.393Z,100.00
2019-04-26T10:19:17.073Z,100.00
2019-04-26T10:21:47.816Z,100.00
2019-04-26T10:24:18.896Z,100.00
2019-04-26T10:26:49.587Z,99.25
2019-04-26T10:29:21.750Z,99.25
2019-04-26T10:31:52.979Z,100.00
2019-04-26T10:34:23.731Z,99.31
2019-04-26T10:36:56.847Z,99.76
2019-04-26T10:39:28.613Z,100.00
2019-04-26T10:41:59.597Z,100.00
2019-04-26T10:44:30.721Z,100.00
2019-04-26T10:47:04.366Z,100.00
2019-04-26T10:49:44.921Z,100.00
2019-04-26T10:52:29.817Z,100.00
2019-04-26T10:55:16.023Z,100.00
2019-04-26T10:57:46.059Z,100.00
2019-04-26T11:00:29.128Z,100.00
2019-04-26T11:03:04.007Z,100.00
2019-04-26T11:05:32.845Z,99.35
2019-04-26T11:08:04.216Z,98.20
2019-04-26T11:10:47.982Z,98.54
2019-04-26T11:13:08.707Z,98.94
2019-04-26T11:15:39.758Z,97.70
2019-04-26T11:18:10.569Z,98.53
2019-04-26T11:20:45.660Z,96.02
2019-04-26T11:23:14.286Z,96.16
2019-04-26T11:25:45.084Z,96.97
2019-04-26T11:28:20.845Z,94.92
2019-04-26T11:30:52.072Z,92.96
2019-04-26T11:33:20.767Z,91.20
2019-04-26T11:35:51.818Z,93.66
2019-04-26T11:38:22.655Z,91.46
2019-04-26T11:41:05.803Z,92.97
2019-04-26T11:43:26.192Z,89.65
2019-04-26T11:46:04.233Z,91.79
2019-04-26T11:48:30.679Z,92.87
2019-04-26T11:51:01.426Z,89.96
2019-04-26T11:53:33.497Z,93.51
2019-04-26T11:56:05.674Z,91.68
2019-04-26T11:58:36.791Z,91.21
2019-04-26T12:01:09.419Z,91.74
2019-04-26T12:03:42.712Z,91.30
2019-04-26T12:06:35.538Z,89.38
2019-04-26T12:09:12.726Z,91.73
2019-04-26T12:11:49.598Z,90.90
2019-04-26T12:14:20.553Z,89.39
2019-04-26T12:16:54.977Z,92.22
2019-04-26T12:19:23.041Z,94.43
2019-04-26T12:21:54.992Z,93.45
2019-04-26T12:24:29.603Z,92.42
2019-04-26T12:26:59.729Z,93.27
2019-04-26T12:29:30.503Z,91.23
2019-04-26T12:32:01.485Z,93.36
2019-04-26T12:34:32.366Z,92.56
2019-04-26T12:37:03.243Z,92.34
2019-04-26T12:39:36.714Z,92.97
2019-04-26T12:42:08.304Z,95.51
2019-04-26T12:44:47.012Z,93.72
2019-04-26T12:47:30.495Z,94.49
2019-04-26T12:50:00.549Z,93.75
2019-04-26T12:52:31.210Z,93.67
2019-04-26T12:55:02.246Z,92.42
2019-04-26T12:57:36.453Z,94.08
2019-04-26T13:00:06.188Z,91.76
2019-04-26T13:02:38.084Z,93.36
2019-04-26T13:05:09.162Z,93.89
2019-04-26T13:07:42.929Z,94.45
2019-04-26T13:10:22.053Z,94.62
2019-04-26T13:13:05.911Z,93.86
2019-04-26T13:16:03.340Z,95.03
2019-04-26T13:18:34.324Z,94.57
2019-04-26T13:21:05.647Z,95.24
2019-04-26T13:23:36.400Z,94.78
2019-04-26T13:26:07.138Z,93.06
2019-04-26T13:28:37.880Z,94.22
2019-04-26T13:31:08.718Z,91.14
2019-04-26T13:33:39.927Z,90.77
2019-04-26T13:36:10.681Z,90.57
2019-04-26T13:38:43.413Z,87.81
2019-04-26T13:41:14.593Z,88.61
2019-04-26T13:43:45.383Z,88.86
2019-04-26T13:46:26.679Z,91.48
2019-04-26T13:49:18.158Z,87.39
2019-04-26T13:51:47.516Z,88.72
2019-04-26T13:54:21.181Z,89.87
2019-04-26T13:56:51.475Z,89.64
2019-04-26T13:59:22.479Z,89.35
2019-04-26T14:01:53.215Z,88.73
2019-04-26T14:04:24.057Z,88.54
2019-04-26T14:06:54.971Z,88.26
2019-04-26T14:09:25.891Z,87.87
2019-04-26T14:11:58.070Z,85.67
2019-04-26T14:14:30.207Z,85.22
2019-04-26T14:17:01.502Z,86.08
2019-04-26T14:19:32.489Z,85.93
2019-04-26T14:22:07.172Z,84.28
2019-04-26T14:24:45.326Z,86.93
2019-04-26T14:27:20.307Z,86.00
2019-04-26T14:29:51.046Z,85.64
2019-04-26T14:32:23.382Z,83.24
2019-04-26T14:34:54.726Z,84.01
2019-04-26T14:37:25.712Z,85.53
2019-04-26T14:39:59.260Z,86.22
2019-04-26T14:42:34.399Z,82.74
2019-04-26T14:45:06.145Z,80.22
2019-04-26T14:47:46.742Z,84.32
2019-04-26T14:50:14.198Z,87.24
2019-04-26T14:52:40.441Z,86.71
2019-04-26T14:55:11.251Z,84.30
2019-04-26T14:57:42.791Z,85.51
2019-04-26T15:00:16.742Z,83.00
2019-04-26T15:03:03.833Z,84.11
2019-04-26T15:05:59.446Z,83.44
2019-04-26T15:08:32.086Z,84.80
2019-04-26T15:11:04.564Z,85.79
2019-04-26T15:13:40.263Z,86.93
2019-04-26T15:16:10.202Z,90.20
2019-04-26T15:18:42.507Z,91.89
2019-04-26T15:21:13.382Z,94.25
2019-04-26T15:23:44.181Z,95.42
2019-04-26T15:26:18.414Z,96.23
2019-04-26T15:28:50.548Z,96.20
2019-04-26T15:31:21.672Z,95.58
2019-04-26T15:33:52.964Z,96.15
2019-04-26T15:36:24.818Z,96.49
2019-04-26T15:38:56.200Z,96.21
2019-04-26T15:41:47.054Z,96.67
2019-04-26T15:44:29.699Z,96.05
2019-04-26T15:47:23.606Z,95.46
2019-04-26T15:50:22.320Z,96.91
2019-04-26T15:52:53.133Z,96.62
2019-04-26T15:55:24.112Z,95.90
2019-04-26T15:57:54.852Z,96.48
2019-04-26T16:00:28.388Z,95.72
2019-04-26T16:02:58.652Z,96.08
2019-04-26T16:05:31.274Z,93.55
2019-04-26T16:08:04.662Z,95.37
2019-04-26T16:10:38.350Z,92.80
2019-04-26T16:13:18.017Z,95.81
2019-04-26T16:15:43.624Z,95.90
2019-04-26T16:18:17.046Z,94.53
2019-04-26T16:20:47.210Z,94.02
2019-04-26T16:23:17.971Z,92.57
2019-04-26T16:25:48.776Z,90.11
2019-04-26T16:28:45.788Z,90.33
2019-04-26T16:31:24.925Z,92.06
2019-04-26T16:33:59.037Z,93.26
2019-04-26T16:36:30.067Z,92.03
2019-04-26T16:39:02.530Z,92.39
2019-04-26T16:41:37.829Z,89.52
2019-04-26T16:44:07.844Z,90.40
2019-04-26T16:46:38.560Z,92.39
2019-04-26T16:49:12.411Z,92.41
2019-04-26T16:51:43.150Z,91.19
2019-04-26T16:54:21.064Z,91.63
2019-04-26T16:56:47.064Z,91.28
2019-04-26T16:59:22.537Z,90.30
2019-04-26T17:01:50.560Z,89.90
2019-04-26T17:04:28.216Z,88.71
2019-04-26T17:06:54.282Z,89.83
2019-04-26T17:09:29.758Z,91.05
2019-04-26T17:11:57.703Z,92.77
2019-04-26T17:14:28.514Z,92.50
2019-04-26T17:16:59.492Z,89.78
2019-04-26T17:19:35.921Z,89.86
2019-04-26T17:22:16.680Z,91.33
2019-04-26T17:24:53.379Z,92.95
2019-04-26T17:27:24.504Z,94.23
2019-04-26T17:29:55.325Z,94.39
2019-04-26T17:32:26.068Z,95.29
2019-04-26T17:34:59.503Z,95.59
2019-04-26T17:37:30.545Z,94.85
2019-04-26T17:40:01.551Z,93.34
2019-04-26T17:42:36.310Z,93.73
2019-04-26T17:45:07.052Z,96.32
2019-04-26T17:47:40.249Z,96.66
2019-04-26T17:50:11.567Z,96.69
2019-04-26T17:52:44.232Z,96.68
2019-04-26T17:55:16.080Z,97.05
2019-04-26T17:57:48.432Z,96.10
2019-04-26T18:00:27.138Z,97.15
2019-04-26T18:02:55.085Z,97.73
2019-04-26T18:05:39.919Z,96.71
2019-04-26T18:08:01.680Z,97.04
2019-04-26T18:10:31.345Z,95.53
2019-04-26T18:13:02.535Z,96.72
2019-04-26T18:15:35.641Z,97.17
2019-04-26T18:18:25.267Z,97.20
2019-04-26T18:21:36.979Z,96.82
2019-04-26T18:24:08.031Z,95.28
2019-04-26T18:26:38.776Z,97.06
2019-04-26T18:29:09.600Z,98.79
2019-04-26T18:31:40.643Z,100.00
2019-04-26T18:34:12.815Z,100.00
2019-04-26T18:36:43.867Z,100.00
2019-04-26T18:39:18.066Z,100.00
2019-04-26T18:41:47.872Z,100.00
2019-04-26T18:44:18.726Z,100.00
2019-04-26T18:47:02.782Z,100.00
2019-04-26T18:49:34.841Z,100.00
2019-04-26T18:52:05.581Z,100.00
2019-04-26T18:54:52.936Z,100.00
2019-04-26T18:57:24.242Z,100.00
2019-04-26T18:59:55.702Z,98.92
2019-04-26T19:02:27.948Z,96.91
2019-04-26T19:04:58.926Z,97.70
2019-04-26T19:07:32.682Z,99.72
2019-04-26T19:10:07.052Z,100.00
2019-04-26T19:12:39.220Z,100.00
2019-04-26T19:15:45.814Z,99.94
2019-04-26T19:18:42.446Z,100.00
2019-04-26T19:21:44.615Z,100.00
2019-04-26T19:24:19.640Z,100.00
2019-04-26T19:26:49.735Z,100.00
2019-04-26T19:29:29.148Z,100.00
2019-04-26T19:31:56.714Z,100.00
2019-04-26T19:34:30.251Z,100.00
2019-04-26T19:37:00.973Z,100.00
2019-04-26T19:39:35.499Z,99.43
2019-04-26T19:42:06.851Z,100.00
2019-04-26T19:44:37.589Z,100.00
2019-04-26T19:47:22.684Z,98.76
2019-04-26T19:50:18.442Z,98.72
2019-04-26T19:53:22.965Z,98.24
2019-04-26T19:56:24.856Z,98.95
2019-04-26T19:58:57.642Z,100.00
2019-04-26T20:01:27.485Z,100.00
2019-04-26T20:03:58.343Z,100.00
2019-04-26T20:06:29.336Z,99.28
2019-04-26T20:09:01.944Z,97.26
2019-04-26T20:11:34.442Z,95.46
2019-04-26T20:14:05.237Z,96.29
2019-04-26T20:16:36.476Z,95.79
2019-04-26T20:19:14.938Z,96.52
2019-04-26T20:21:41.496Z,95.70
2019-04-26T20:24:12.758Z,94.94
2019-04-26T20:26:44.703Z,94.13
2019-04-26T20:29:15.745Z,95.33
2019-04-26T20:31:54.340Z,94.67
2019-04-26T20:34:25.064Z,95.59
2019-04-26T20:36:56.032Z,95.97
2019-04-26T20:39:26.830Z,95.19
2019-04-26T20:42:03.563Z,95.28
2019-04-26T20:44:47.520Z,96.35
2019-04-26T20:47:03.425Z,94.75
2019-04-26T20:49:34.145Z,94.55
2019-04-26T20:52:05.136Z,93.78
2019-04-26T20:54:35.880Z,94.29
2019-04-26T20:57:06.696Z,95.37
2019-04-26T20:59:37.419Z,94.95
2019-04-26T21:02:08.485Z,93.74
2019-04-26T21:04:42.251Z,93.62
2019-04-26T21:07:14.093Z,93.79
2019-04-26T21:09:46.079Z,93.11
2019-04-26T21:12:18.520Z,93.46
2019-04-26T21:14:49.204Z,93.51
2019-04-26T21:17:26.380Z,92.29
2019-04-26T21:19:58.413Z,93.42
2019-04-26T21:22:28.878Z,94.00
2019-04-26T21:25:05.543Z,93.43
2019-04-26T21:27:57.000Z,92.49
2019-04-26T21:30:41.843Z,92.02
2019-04-26T21:33:24.498Z,94.27
2019-04-26T21:36:26.088Z,92.07
2019-04-26T21:39:14.891Z,91.87
2019-04-26T21:41:48.371Z,92.72
2019-04-26T21:44:19.237Z,92.20
2019-04-26T21:46:56.111Z,92.62
2019-04-26T21:49:24.375Z,94.10
2019-04-26T21:51:55.128Z,93.11
2019-04-26T21:54:25.877Z,93.65
2019-04-26T21:56:56.861Z,92.77
2019-04-26T21:59:27.838Z,92.02
2019-04-26T22:01:59.279Z,92.48
2019-04-26T22:04:36.365Z,91.74
2019-04-26T22:07:05.161Z,93.86
2019-04-26T22:09:43.967Z,94.70
2019-04-26T22:12:16.064Z,95.66
2019-04-26T22:14:58.245Z,94.79
2019-04-26T22:17:34.791Z,97.78
2019-04-26T22:20:23.390Z,96.21
2019-04-26T22:23:16.361Z,96.66
2019-04-26T22:25:46.623Z,98.92
2019-04-26T22:28:17.604Z,99.33
2019-04-26T22:30:49.321Z,97.93
2019-04-26T22:33:20.071Z,99.41
2019-04-26T22:35:55.283Z,100.00
2019-04-26T22:38:26.693Z,100.00
2019-04-26T22:40:57.534Z,100.00
2019-04-26T22:43:54.058Z,100.00
2019-04-26T22:46:49.445Z,100.00
2019-04-26T22:49:20.050Z,100.00
2019-04-26T22:51:51.327Z,100.00
2019-04-26T22:54:23.074Z,100.00
2019-04-26T22:56:54.828Z,100.00
2019-04-26T22:59:25.579Z,100.00
2019-04-26T23:01:56.306Z,100.00
2019-04-26T23:04:27.807Z,100.00
2019-04-26T23:06:58.545Z,100.00
2019-04-26T23:09:29.300Z,100.00
2019-04-26T23:12:06.833Z,100.00
2019-04-26T23:14:57.641Z,100.00
2019-04-26T23:17:46.468Z,100.00
2019-04-26T23:20:39.073Z,100.00
2019-04-26T23:23:10.488Z,100.00
2019-04-26T23:25:41.460Z,100.00
2019-04-26T23:28:12.512Z,100.00
2019-04-26T23:30:44.243Z,100.00
2019-04-26T23:33:15.186Z,100.00
2019-04-26T23:35:47.753Z,100.00
2019-04-26T23:38:19.521Z,100.00
2019-04-26T23:40:50.798Z,100.00
2019-04-26T23:43:25.437Z,100.00
2019-04-26T23:45:54.205Z,100.00
2019-04-26T23:48:25.192Z,100.00
2019-04-26T23:50:59.927Z,100.00
2019-04-26T23:53:28.350Z,100.00
2019-04-26T23:55:59.311Z,100.00
2019-04-26T23:58:30.299Z,100.00
